Time,TemperatureF,DewpointF,PressureIn,WindDirection,WindDirectionDegrees,WindSpeedMPH,WindSpeedGustMPH,Humidity,HourlyPrecipIn,Conditions,Clouds,dailyrainin,SoftwareType,DateUTC
2013-04-18 21:00:00,76.5,59.1,29.30,SSW,203,23.6,23.6,55,0.00,,,0.00,WUHU216HW,2013-04-19 02:00:00,
2013-04-18 21:05:00,76.5,59.1,29.29,South,180,8.8,23.6,55,0.00,,,0.00,WUHU216HW,2013-04-19 02:05:00,
2013-04-18 21:10:00,76.3,59.0,29.29,South,180,15.1,15.1,55,0.00,,,0.00,WUHU216HW,2013-04-19 02:10:00,
2013-04-18 21:15:00,76.3,59.0,29.29,ENE,68,6.3,16.5,55,0.00,,,0.00,WUHU216HW,2013-04-19 02:15:00,
2013-04-18 21:20:00,76.1,58.8,29.29,ESE,113,6.3,16.5,55,0.00,,,0.00,WUHU216HW,2013-04-19 02:20:00,
2013-04-18 21:25:00,76.1,59.3,29.30,SW,225,6.3,18.0,56,0.00,,,0.00,WUHU216HW,2013-04-19 02:25:00,
2013-04-18 21:30:00,76.1,59.3,29.30,WSW,248,8.8,19.7,56,0.00,,,0.00,WUHU216HW,2013-04-19 02:30:00,
2013-04-18 21:35:00,76.1,59.3,29.30,SSW,203,3.9,19.7,56,0.00,,,0.00,WUHU216HW,2013-04-19 02:35:00,
2013-04-18 21:40:00,76.0,59.1,29.31,ENE,68,13.4,13.4,56,0.00,,,0.00,WUHU216HW,2013-04-19 02:40:00,
2013-04-18 21:45:00,76.0,59.1,29.32,WSW,248,8.8,13.4,56,0.00,,,0.00,WUHU216HW,2013-04-19 02:45:00,
2013-04-18 21:50:00,76.0,59.1,29.32,SSW,203,8.8,15.8,56,0.00,,,0.00,WUHU216HW,2013-04-19 02:50:00,
2013-04-18 21:55:00,76.1,59.3,29.31,SE,135,16.5,16.5,56,0.00,,,0.00,WUHU216HW,2013-04-19 02:55:00,
2013-04-18 22:00:00,76.1,59.3,29.30,SW,225,8.8,16.5,56,0.00,,,0.00,WUHU216HW,2013-04-19 03:00:00,
2013-04-18 22:05:00,76.1,59.3,29.31,SW,225,3.2,14.1,56,0.00,,,0.00,WUHU216HW,2013-04-19 03:05:00,
2013-04-18 22:10:00,76.0,59.6,29.32,SW,225,6.3,18.0,57,0.00,,,0.00,WUHU216HW,2013-04-19 03:10:00,
2013-04-18 22:15:00,75.8,60.5,29.32,West,270,6.3,18.0,59,0.00,,,0.00,WUHU216HW,2013-04-19 03:15:00,
2013-04-18 22:20:00,75.2,60.5,29.31,SW,225,9.5,13.4,60,0.00,,,0.00,WUHU216HW,2013-04-19 03:20:00,
2013-04-18 22:25:00,74.5,61.6,29.30,NNE,23,6.3,13.4,64,0.01,,,0.01,WUHU216HW,2013-04-19 03:25:00,
2013-04-18 22:30:00,73.4,61.4,29.30,NNE,23,10.2,14.1,66,0.01,,,0.01,WUHU216HW,2013-04-19 03:30:00,
2013-04-18 22:35:00,72.5,61.8,29.30,South,180,9.5,14.1,69,0.02,,,0.02,WUHU216HW,2013-04-19 03:35:00,
2013-04-18 22:40:00,72.0,62.5,29.30,SSE,158,18.0,18.0,72,0.02,,,0.02,WUHU216HW,2013-04-19 03:40:00,
2013-04-18 22:45:00,71.6,60.9,29.29,SE,135,8.8,18.0,69,0.02,,,0.02,WUHU216HW,2013-04-19 03:45:00,
2013-04-18 22:50:00,71.3,61.0,29.29,SW,225,15.8,15.8,70,0.02,,,0.02,WUHU216HW,2013-04-19 03:50:00,
2013-04-18 22:55:00,71.3,61.4,29.29,ESE,113,9.5,15.8,71,0.02,,,0.02,WUHU216HW,2013-04-19 03:55:00,
2013-04-18 23:00:00,71.1,60.4,29.27,North,0,0.7,9.5,69,0.02,,,0.02,WUHU216HW,2013-04-19 04:00:00,
2013-04-18 23:01:00,71.1,61.6,29.27,North,0,0.0,9.5,72,0.02,,,0.02,WUHU216HW,2013-04-19 04:01:00,
2013-04-18 23:06:00,70.9,61.0,29.27,SSW,203,3.2,3.2,71,0.03,,,0.03,WUHU216HW,2013-04-19 04:06:00,
2013-04-18 23:11:00,70.4,61.3,29.27,NNW,338,1.4,3.2,73,0.05,,,0.05,WUHU216HW,2013-04-19 04:11:00,
2013-04-18 23:16:00,69.8,61.8,29.27,WNW,293,8.8,8.8,76,0.07,,,0.07,WUHU216HW,2013-04-19 04:16:00,
2013-04-18 23:21:00,69.5,60.8,29.27,South,180,6.3,8.8,74,0.07,,,0.07,WUHU216HW,2013-04-19 04:21:00,
2013-04-18 23:26:00,69.3,61.7,29.27,WNW,293,2.5,6.3,77,0.06,,,0.07,WUHU216HW,2013-04-19 04:26:00,
2013-04-18 23:31:00,68.9,61.4,29.27,SW,225,3.2,4.6,77,0.10,,,0.12,WUHU216HW,2013-04-19 04:31:00,
2013-04-18 23:36:00,68.6,61.1,29.26,SSW,203,7.0,7.0,77,0.12,,,0.14,WUHU216HW,2013-04-19 04:36:00,
2013-04-18 23:41:00,68.4,61.7,29.25,WSW,248,0.0,7.7,79,0.12,,,0.14,WUHU216HW,2013-04-19 04:41:00,
2013-04-18 23:46:00,68.2,61.1,29.25,SSW,203,12.7,12.7,78,0.14,,,0.16,WUHU216HW,2013-04-19 04:46:00,
2013-04-18 23:51:00,68.0,61.4,29.25,WSW,248,6.3,12.7,79,0.15,,,0.17,WUHU216HW,2013-04-19 04:51:00,
2013-04-18 23:56:00,68.0,62.4,29.25,South,180,3.9,8.8,82,0.16,,,0.18,WUHU216HW,2013-04-19 04:56:00,